createdAt,value
2017-06-20T00:59:27.510Z,5.63
2017-06-20T01:01:55.779Z,5.17
2017-06-20T01:04:24.086Z,5.50
2017-06-20T01:06:52.331Z,5.83
2017-06-20T01:09:20.593Z,5.03
2017-06-20T01:11:48.855Z,5.30
2017-06-20T01:38:19.057Z,5.20
2017-06-20T01:40:47.298Z,5.30
2017-06-20T01:43:15.567Z,5.60
2017-06-20T01:45:43.852Z,7.10
2017-06-20T01:48:12.117Z,7.60
2017-06-20T01:50:40.384Z,4.90
2017-06-20T01:53:08.657Z,6.20
2017-06-20T02:22:39.044Z,6.10
2017-06-20T02:25:07.343Z,5.70
2017-06-20T02:27:35.589Z,6.90
2017-06-20T02:30:03.818Z,5.77
2017-06-20T02:32:51.038Z,6.03
2017-06-20T02:35:19.351Z,5.03
2017-06-20T02:37:47.577Z,5.63
2017-06-20T02:40:15.831Z,5.70
2017-06-20T02:42:44.133Z,6.40
2017-06-20T02:45:12.393Z,5.40
2017-06-20T02:47:40.686Z,5.90
2017-06-20T03:14:10.087Z,5.33
2017-06-20T03:16:38.311Z,5.30
2017-06-20T03:19:06.554Z,5.23
2017-06-20T03:21:34.838Z,5.00
2017-06-20T03:24:03.087Z,6.30
2017-06-20T03:26:31.370Z,5.70
2017-06-20T03:28:59.599Z,5.60
2017-06-20T03:31:27.864Z,5.93
2017-06-20T03:39:56.305Z,5.10
2017-06-20T03:42:24.552Z,5.30
2017-06-20T03:50:53.471Z,5.50
2017-06-20T03:53:21.727Z,5.83
2017-06-20T03:55:49.994Z,5.33
2017-06-20T03:58:18.242Z,5.23
2017-06-20T04:00:46.500Z,6.20
2017-06-20T04:03:14.796Z,4.80
2017-06-20T04:05:43.064Z,5.13
2017-06-20T04:08:11.392Z,5.63
2017-06-20T04:10:39.646Z,6.33
2017-06-20T04:13:07.920Z,5.47
2017-06-20T04:15:36.166Z,5.07
2017-06-20T04:18:04.464Z,5.50
2017-06-20T04:20:32.726Z,5.27
2017-06-20T04:23:01.004Z,4.93
2017-06-20T04:31:29.894Z,5.67
2017-06-20T04:33:58.135Z,6.07
2017-06-20T04:36:26.381Z,5.97
2017-06-20T05:08:55.949Z,6.73
2017-06-20T05:29:31.949Z,6.70
2017-06-20T05:32:00.206Z,8.50
2017-06-20T05:34:28.446Z,6.43
2017-06-20T05:36:56.733Z,5.40
2017-06-20T05:39:24.995Z,6.10
2017-06-20T05:41:53.278Z,5.97
2017-06-20T05:44:21.526Z,5.77
2017-06-20T05:46:49.796Z,5.23
2017-06-20T05:49:18.175Z,5.60
2017-06-20T05:51:46.423Z,5.77
2017-06-20T05:54:14.673Z,4.93
2017-06-20T05:56:43.059Z,5.27
2017-06-20T05:59:11.343Z,5.77
2017-06-20T06:01:39.602Z,4.90
2017-06-20T06:04:07.905Z,4.67
2017-06-20T06:06:36.175Z,4.53
2017-06-20T06:09:04.400Z,5.77
2017-06-20T06:11:32.688Z,5.30
2017-06-20T06:14:00.946Z,4.67
2017-06-20T06:16:54.499Z,4.97
2017-06-20T06:31:23.896Z,4.23
2017-06-20T07:18:54.052Z,4.00
2017-06-20T07:21:22.315Z,3.70
2017-06-20T07:29:50.614Z,3.23
2017-06-20T07:32:18.841Z,3.80
2017-06-20T07:34:47.120Z,2.87
2017-06-20T07:37:15.349Z,3.50
2017-06-20T07:54:44.295Z,3.37
2017-06-20T08:09:13.312Z,3.57
2017-06-20T08:23:42.214Z,3.33
2017-06-20T08:26:10.527Z,3.50
2017-06-20T08:28:38.754Z,3.70
2017-06-20T08:31:06.981Z,3.97
2017-06-20T08:33:35.281Z,3.17
2017-06-20T08:39:03.908Z,3.20
2017-06-20T08:41:32.135Z,3.40
2017-06-20T08:44:00.437Z,3.20
2017-06-20T08:46:28.685Z,2.70
2017-06-20T08:58:24.130Z,3.30
2017-06-20T09:00:52.368Z,2.60
2017-06-20T09:30:23.198Z,3.43
2017-06-20T09:59:54.274Z,2.87
2017-06-20T10:02:22.510Z,2.90
2017-06-20T10:34:53.155Z,2.97
2017-06-20T10:37:21.413Z,3.07
2017-06-20T10:39:49.652Z,3.37
2017-06-20T10:42:18.002Z,2.90
2017-06-20T10:44:46.258Z,3.17
2017-06-20T10:47:14.507Z,3.13
2017-06-20T10:49:42.809Z,3.17
2017-06-20T10:52:11.047Z,2.83
2017-06-20T10:54:39.284Z,3.47
2017-06-20T10:57:07.560Z,3.37
2017-06-20T10:59:35.823Z,2.73
2017-06-20T11:02:04.086Z,3.30
2017-06-20T11:04:32.373Z,3.30
2017-06-20T11:07:00.605Z,3.07
2017-06-20T11:48:56.213Z,3.07
2017-06-20T11:57:53.227Z,3.03
2017-06-20T12:00:21.449Z,2.70
2017-06-20T12:05:49.711Z,2.50
2017-06-20T12:08:17.947Z,2.80
2017-06-20T12:25:47.591Z,3.53
2017-06-20T12:28:15.847Z,3.03
2017-06-20T12:30:44.140Z,2.93
2017-06-20T12:33:12.374Z,4.10
2017-06-20T12:35:40.619Z,3.20
2017-06-20T12:41:08.858Z,3.27
2017-06-20T12:43:37.164Z,3.10
2017-06-20T12:46:05.398Z,2.90
2017-06-20T12:48:33.610Z,3.33
2017-06-20T12:51:01.877Z,3.30
2017-06-20T12:53:30.166Z,3.07
2017-06-20T12:55:58.412Z,3.27
2017-06-20T12:58:26.648Z,3.23
2017-06-20T13:34:16.152Z,4.17
2017-06-20T13:36:57.540Z,4.30
2017-06-20T13:42:49.942Z,4.20
2017-06-20T13:45:26.261Z,4.37
2017-06-20T13:59:55.795Z,4.43
2017-06-20T14:14:54.987Z,4.10
2017-06-20T15:11:41.027Z,6.30
2017-06-20T15:29:10.935Z,4.50
2017-06-20T15:31:39.215Z,5.27
2017-06-20T15:34:07.457Z,4.57
2017-06-20T15:57:36.595Z,5.27
2017-06-20T16:00:04.894Z,5.73
2017-06-20T16:02:33.126Z,5.77
2017-06-20T16:05:01.369Z,7.37
2017-06-20T16:07:29.658Z,6.00
2017-06-20T17:58:04.980Z,6.73
2017-06-20T19:00:37.431Z,5.50
2017-06-20T19:03:05.681Z,5.70
2017-06-20T19:05:33.946Z,6.33
2017-06-20T19:08:02.230Z,5.97
2017-06-20T19:16:30.601Z,5.50
2017-06-20T19:43:00.487Z,5.40
2017-06-20T19:45:28.714Z,5.30
2017-06-20T19:47:56.980Z,5.30
2017-06-20T20:08:40.114Z,4.47
2017-06-20T20:29:10.347Z,4.20
2017-06-20T20:31:38.578Z,4.40
2017-06-20T21:49:15.712Z,4.90
2017-06-20T21:51:43.943Z,4.53
2017-06-20T21:54:12.199Z,4.33
2017-06-20T21:56:40.470Z,4.57
2017-06-20T22:17:09.848Z,4.63
2017-06-20T22:19:38.086Z,4.50
2017-06-20T22:22:06.314Z,4.77
2017-06-20T22:24:34.596Z,4.13
2017-06-20T22:27:02.892Z,5.20
2017-06-20T22:29:31.148Z,5.17
2017-06-20T22:31:59.445Z,4.83
2017-06-20T22:34:27.686Z,4.50
2017-06-20T22:36:55.925Z,4.70
2017-06-20T22:39:24.202Z,5.20
2017-06-20T22:41:52.441Z,4.67
2017-06-20T22:44:20.672Z,4.50
2017-06-20T22:46:49.003Z,4.77
2017-06-20T22:49:17.292Z,4.40
2017-06-20T22:51:45.541Z,5.10
2017-06-20T23:00:22.512Z,5.03
2017-06-20T23:02:50.742Z,4.93
2017-06-20T23:05:19.002Z,4.60
2017-06-20T23:07:56.853Z,5.03
